Weather History for Versailles, OH

Change the Weather History Date:

Sunday, March 10, 2013

  Actual Average (KDAY) Record (KDAY)
Temperature  
Mean Temperature 52 °F 38 °F  
Max Temperature 62 °F 47 °F 76 °F (2009)
Min Temperature 42 °F 29 °F 7 °F (1984)
Degree Days  
Heating Degree Days 13 27  
Month to date heating degree days 285  
Since 1 July heating degree days 4560  
Cooling Degree Days 0 0  
Month to date cooling degree days 0  
Year to date cooling degree days 0  
Growing Degree Days 2 (Base 50)    
Moisture  
Dew Point 36 °F    
Average Humidity 53    
Maximum Humidity 70    
Minimum Humidity 37    
Precipitation  
Precipitation 0.00 in 0.10 in 1.56 in (1952)
Month to date precipitation 0.93  
Year to date precipitation 5.88  
Snow  
Snow 0.00 in 0.10 in 4.10 in (1949)
Month to date snowfall 1.5  
Since 1 July snowfall 20.8  
Snow Depth -    
Sea Level Pressure  
Sea Level Pressure 29.92 in    
Wind  
Wind Speed 10 mph (South)    
Max Wind Speed 22 mph    
Max Gust Speed 29 mph    
Visibility 10 miles    
Events Rain    
T = Trace of Precipitation, MM = Missing Value Source: NWS Daily Summary

Daily Weather History Graph

Daily Weather History Graph

Search for Another Location

Airport:

Trip Planner

Search our weather history database for the weather conditions in past years. The results will help you decide how hot, cold, wet, or windy it might be!

Date:

Astronomy

Mar. 10, 2013 Rise Set
Actual Time 7:57 AM EDT 7:39 PM EDT
Civil Twilight 7:30 AM EDT 8:07 PM EDT
Nautical Twilight 6:58 AM EDT 8:38 PM EDT
Astronomical Twilight 6:27 AM EDT 9:10 PM EDT
Moon 6:56 AM EDT (3/10) 6:46 PM EDT (3/10)
Length of Visible Light 12h 36m
Length of Day
11h 42m
Waning Crescent, 2% of the Moon is Illuminated
Mar 10
Waning Crescent
Mar 11
New
Mar 19
First Quarter
Mar 27
Full
Apr 3
Last Quarter

Hourly Weather History & Observations

Time (EDT) Temp. Windchill Dew Point Humidity Pressure Visibility Wind Dir Wind Speed Gust Speed Precip Events Conditions
12:15 AM 44.6 °F 39.7 °F 32.0 °F 61% 30.00 in 10.0 mi SSE 9.2 mph - N/A   Scattered Clouds
12:35 AM 44.6 °F 40.2 °F 32.0 °F 61% 30.00 in 10.0 mi SSE 8.1 mph - N/A   Scattered Clouds
12:55 AM 42.8 °F 38.6 °F 32.0 °F 66% 29.99 in 10.0 mi SSE 6.9 mph - N/A   Mostly Cloudy
1:15 AM 42.8 °F 38.6 °F 32.0 °F 66% 30.00 in 10.0 mi SSE 6.9 mph - N/A   Scattered Clouds
1:35 AM 42.8 °F 38.0 °F 33.8 °F 70% 29.99 in 10.0 mi SSE 8.1 mph - N/A   Mostly Cloudy
1:55 AM 42.8 °F 38.0 °F 32.0 °F 66% 29.99 in 10.0 mi SSE 8.1 mph - N/A   Scattered Clouds
3:15 AM 42.8 °F 38.0 °F 32.0 °F 66% 29.98 in 10.0 mi SSE 8.1 mph - N/A   Clear
3:35 AM 42.8 °F 37.5 °F 32.0 °F 66% 29.97 in 10.0 mi SSE 9.2 mph - N/A   Scattered Clouds
3:55 AM 44.6 °F 40.7 °F 32.0 °F 61% 29.96 in 10.0 mi SSE 6.9 mph - N/A   Mostly Cloudy
4:15 AM 44.6 °F 40.2 °F 32.0 °F 61% 29.95 in 10.0 mi SSE 8.1 mph - N/A   Mostly Cloudy
4:35 AM 42.8 °F 38.0 °F 32.0 °F 66% 29.95 in 10.0 mi South 8.1 mph - N/A   Scattered Clouds
4:55 AM 44.6 °F 40.2 °F 32.0 °F 61% 29.95 in 10.0 mi South 8.1 mph - N/A   Clear
5:15 AM 44.6 °F 40.7 °F 33.8 °F 66% 29.95 in 10.0 mi South 6.9 mph - N/A   Clear
5:35 AM 44.6 °F 40.2 °F 33.8 °F 66% 29.95 in 10.0 mi South 8.1 mph - N/A   Clear
5:55 AM 44.6 °F 40.2 °F 33.8 °F 66% 29.95 in 10.0 mi South 8.1 mph - N/A   Clear
6:15 AM 44.6 °F 41.4 °F 33.8 °F 66% 29.96 in 10.0 mi South 5.8 mph - N/A   Clear
6:35 AM 44.6 °F 40.2 °F 33.8 °F 66% 29.97 in 10.0 mi South 8.1 mph - N/A   Clear
6:55 AM 44.6 °F 39.7 °F 33.8 °F 66% 29.97 in 10.0 mi South 9.2 mph - N/A   Clear
7:15 AM 44.6 °F 39.7 °F 33.8 °F 66% 29.97 in 10.0 mi South 9.2 mph - N/A   Clear
8:35 AM 46.4 °F 42.4 °F 33.8 °F 62% 29.99 in 10.0 mi South 8.1 mph - N/A   Clear
8:55 AM 46.4 °F 42.9 °F 33.8 °F 62% 29.99 in 10.0 mi South 6.9 mph - N/A   Clear
9:15 AM 46.4 °F 42.9 °F 33.8 °F 62% 29.99 in 10.0 mi South 6.9 mph - N/A   Clear
9:35 AM 48.2 °F - 33.8 °F 58% 29.99 in 10.0 mi South 8.1 mph - N/A   Clear
9:55 AM 50.0 °F - 33.8 °F 54% 29.98 in 10.0 mi South 9.2 mph - N/A   Clear
10:15 AM 50.0 °F - 35.6 °F 58% 29.99 in 10.0 mi South 10.4 mph 16.1 mph N/A   Scattered Clouds
10:35 AM 50.0 °F - 35.6 °F 58% 29.98 in 10.0 mi South 12.7 mph 17.3 mph N/A   Scattered Clouds
10:55 AM 51.8 °F - 35.6 °F 54% 29.97 in 10.0 mi South 10.4 mph 17.3 mph N/A   Clear
11:15 AM 51.8 °F - 35.6 °F 54% 29.97 in 10.0 mi South 10.4 mph 16.1 mph N/A   Scattered Clouds
11:35 AM 50.0 °F - 35.6 °F 58% 29.97 in 10.0 mi South 9.2 mph - N/A   Clear
11:55 AM 53.6 °F - 37.4 °F 54% 29.98 in 10.0 mi SSW 8.1 mph 16.1 mph N/A   Clear
12:15 PM 55.4 °F - 37.4 °F 51% 29.97 in 10.0 mi South 12.7 mph 24.2 mph N/A   Clear
12:35 PM 55.4 °F - 37.4 °F 51% 29.96 in 10.0 mi SSW 13.8 mph 21.9 mph N/A   Clear
12:55 PM 57.2 °F - 39.2 °F 51% 29.95 in 10.0 mi SSW 11.5 mph 23.0 mph N/A   Clear
1:15 PM 59.0 °F - 37.4 °F 45% 29.95 in 10.0 mi SSW 13.8 mph 24.2 mph N/A   Clear
1:35 PM 59.0 °F - 39.2 °F 48% 29.94 in 10.0 mi SSW 11.5 mph 21.9 mph N/A   Clear
1:55 PM 59.0 °F - 37.4 °F 45% 29.93 in 10.0 mi SSW 16.1 mph 24.2 mph N/A   Clear
2:15 PM 59.0 °F - 39.2 °F 48% 29.93 in 10.0 mi SSW 16.1 mph 21.9 mph N/A   Clear
2:35 PM 59.0 °F - 37.4 °F 45% 29.94 in 10.0 mi SSW 13.8 mph 19.6 mph N/A   Clear
2:55 PM 59.0 °F - 37.4 °F 45% 29.93 in 10.0 mi South 10.4 mph 19.6 mph N/A   Clear
3:15 PM 59.0 °F - 39.2 °F 48% 29.91 in 10.0 mi South 11.5 mph 17.3 mph N/A   Clear
3:35 PM 60.8 °F - 39.2 °F 45% 29.91 in 10.0 mi South 10.4 mph 19.6 mph N/A   Clear
3:55 PM 60.8 °F - 37.4 °F 42% 29.90 in 10.0 mi South 13.8 mph 18.4 mph N/A   Clear
4:15 PM 62.6 °F - 37.4 °F 39% 29.88 in 10.0 mi South 16.1 mph 21.9 mph N/A   Clear
4:35 PM 60.8 °F - 37.4 °F 42% 29.87 in 10.0 mi South 17.3 mph 26.5 mph N/A   Clear
4:55 PM 62.6 °F - 37.4 °F 39% 29.88 in 10.0 mi South 10.4 mph 18.4 mph N/A   Clear
5:15 PM 62.6 °F - 35.6 °F 37% 29.89 in 10.0 mi South 11.5 mph 19.6 mph N/A   Clear
5:35 PM 60.8 °F - 35.6 °F 39% 29.88 in 10.0 mi South 13.8 mph 23.0 mph N/A   Clear
5:55 PM 60.8 °F - 35.6 °F 39% 29.86 in 10.0 mi SSE 17.3 mph 23.0 mph N/A   Clear
6:15 PM 60.8 °F - 35.6 °F 39% 29.86 in 10.0 mi SSE 15.0 mph 20.7 mph N/A   Clear
6:35 PM 59.0 °F - 35.6 °F 42% 29.84 in 10.0 mi SSE 12.7 mph 19.6 mph N/A   Clear
6:55 PM 59.0 °F - 35.6 °F 42% 29.84 in 10.0 mi SSE 15.0 mph - N/A   Clear
7:15 PM 59.0 °F - 35.6 °F 42% 29.84 in 10.0 mi SSE 13.8 mph - N/A   Clear
7:35 PM 57.2 °F - 35.6 °F 44% 29.84 in 10.0 mi SSE 12.7 mph 18.4 mph N/A   Clear
7:55 PM 55.4 °F - 35.6 °F 47% 29.84 in 10.0 mi SSE 11.5 mph - N/A   Clear
8:15 PM 55.4 °F - 35.6 °F 47% 29.84 in 10.0 mi SSE 12.7 mph - N/A   Clear
8:35 PM 55.4 °F - 35.6 °F 47% 29.83 in 10.0 mi SSE 11.5 mph - N/A   Scattered Clouds
8:55 PM 55.4 °F - 35.6 °F 47% 29.83 in 10.0 mi SSE 13.8 mph - N/A   Scattered Clouds
9:15 PM 55.4 °F - 35.6 °F 47% 29.83 in 10.0 mi SSE 11.5 mph - N/A   Mostly Cloudy
9:35 PM 57.2 °F - 35.6 °F 44% 29.82 in 10.0 mi SSE 12.7 mph - N/A   Scattered Clouds
10:15 PM 57.2 °F - 33.8 °F 41% 29.83 in 10.0 mi South 12.7 mph - N/A   Mostly Cloudy
10:35 PM 57.2 °F - 35.6 °F 44% 29.82 in 10.0 mi South 12.7 mph 18.4 mph N/A   Overcast
10:55 PM 57.2 °F - 35.6 °F 44% 29.83 in 10.0 mi South 12.7 mph 18.4 mph N/A   Overcast
11:15 PM 55.4 °F - 37.4 °F 51% 29.85 in 10.0 mi SW 10.4 mph - N/A   Light Drizzle
11:35 PM 55.4 °F - 37.4 °F 51% 29.84 in 10.0 mi SSW 18.4 mph 25.3 mph N/A Rain Rain
11:55 PM 55.4 °F - 39.2 °F 54% 29.82 in 10.0 mi South 17.3 mph 24.2 mph N/A   Light Drizzle
12:15 AM 53.6 °F - 41.0 °F 62% 29.81 in 10.0 mi South 16.1 mph 23.0 mph N/A   Overcast
12:35 AM 53.6 °F - 41.0 °F 62% 29.81 in 10.0 mi South 21.9 mph 27.6 mph N/A   Overcast
12:55 AM 53.6 °F - 42.8 °F 67% 29.81 in 10.0 mi South 18.4 mph 28.8 mph N/A   Overcast